^^
Grace C. Lehan Memorial Weather Station Historical Data
Daily Summary for January 15, 2022 Units:  Both    English   Metric
Daily Weekly Monthly Yearly
  High: Low: Average:
Temperature: 31.5 °F /  -0.3 °C 10 °F /  -12.2 °C 22.1 °F /  -5.5 °C
Dew Point: 11.1 °F /  -11.6 °C 2 °F /  -16.7 °C 7.2 °F /  -13.8 °C
Humidity: 71% 37.3% 54%
Wind Speed: 8.1mph /  13km/h - 0.8mph /  1.3km/h
Wind Gust: 15mph /  24.1km/h - -
Wind- - West
Pressure: 30.71 in /  1039.8 hPa 30.38 in /  1028.7 hPa -
Precipitation: 0.00 in /  0 mm    
 
 
Tabular Data for January 15, 2022
Time Temperature Dew Point Pressure Wind Wind Speed Wind Gust Humidity Rainfall Rate (Hourly) solar
00:04 15.4 °F /  -9.2 °C 2.1 °F /  -16.6 °C 30.38in /  1028.7hPa NW 0.2mph /  0.3km/h 11mph /  17.7km/h 55% 0.00in /  0mm 0 W/m2
00:09 15.3 °F /  -9.3 °C 2 °F /  -16.7 °C 30.38in /  1028.7hPa Calm   3mph /  4.8km/h 55% 0.00in /  0mm 0 W/m2
00:14 15.2 °F /  -9.3 °C 2.1 °F /  -16.6 °C 30.38in /  1028.7hPa Calm   3mph /  4.8km/h 55.4% 0.00in /  0mm 0 W/m2
00:19 15.1 °F /  -9.4 °C 2.2 °F /  -16.6 °C 30.39in /  1029hPa NW 0.6mph /  1km/h 5mph /  8km/h 56% 0.00in /  0mm 0 W/m2
00:24 15 °F /  -9.4 °C 2.1 °F /  -16.6 °C 30.39in /  1029hPa Calm   5mph /  8km/h 56% 0.00in /  0mm 0 W/m2
00:29 14.9 °F /  -9.5 °C 2.1 °F /  -16.6 °C 30.40in /  1029.3hPa Calm   5mph /  8km/h 56% 0.00in /  0mm 0 W/m2
00:34 14.9 °F /  -9.5 °C 2.3 °F /  -16.5 °C 30.39in /  1029hPa Calm   5mph /  8km/h 56.6% 0.00in /  0mm 0 W/m2
00:39 14.8 °F /  -9.6 °C 2.3 °F /  -16.5 °C 30.39in /  1029hPa NW 0.3mph /  0.5km/h 4mph /  6.4km/h 57% 0.00in /  0mm 0 W/m2
00:44 14.7 °F /  -9.6 °C 2.2 °F /  -16.6 °C 30.39in /  1029hPa Calm   4mph /  6.4km/h 57% 0.00in /  0mm 0 W/m2
00:49 14.6 °F /  -9.7 °C 2.1 °F /  -16.6 °C 30.39in /  1029hPa Calm   4mph /  6.4km/h 57% 0.00in /  0mm 0 W/m2
00:54 14.5 °F /  -9.7 °C 2 °F /  -16.7 °C 30.39in /  1029hPa Calm   4mph /  6.4km/h 57% 0.00in /  0mm 0 W/m2
00:59 14.4 °F /  -9.8 °C 2.3 °F /  -16.5 °C 30.39in /  1029hPa Calm   4mph /  6.4km/h 57.8% 0.00in /  0mm 0 W/m2
01:04 14.3 °F /  -9.8 °C 2.2 °F /  -16.6 °C 30.40in /  1029.3hPa Calm   4mph /  6.4km/h 58% 0.00in /  0mm 0 W/m2
01:09 14.2 °F /  -9.9 °C 2.1 °F /  -16.6 °C 30.40in /  1029.3hPa Calm     58% 0.00in /  0mm 0 W/m2
01:14 14.1 °F /  -9.9 °C 2 °F /  -16.7 °C 30.39in /  1029hPa Calm     58% 0.00in /  0mm 0 W/m2
01:19 13.9 °F /  -10.1 °C 2.2 °F /  -16.6 °C 30.39in /  1029hPa Calm     58.9% 0.00in /  0mm 0 W/m2
01:24 13.9 °F /  -10.1 °C 2.2 °F /  -16.6 °C 30.39in /  1029hPa Calm     59% 0.00in /  0mm 0 W/m2
01:29 13.7 °F /  -10.2 °C 2.1 °F /  -16.6 °C 30.39in /  1029hPa Calm     59.1% 0.00in /  0mm 0 W/m2
01:34 13.6 °F /  -10.2 °C 2.3 °F /  -16.5 °C 30.40in /  1029.3hPa Calm     60% 0.00in /  0mm 0 W/m2
01:39 13.5 °F /  -10.3 °C 2.2 °F /  -16.6 °C 30.40in /  1029.3hPa Calm     60% 0.00in /  0mm 0 W/m2
01:44 13.4 °F /  -10.3 °C 2.4 °F /  -16.4 °C 30.40in /  1029.3hPa Calm     60.9% 0.00in /  0mm 0 W/m2
01:49 13.3 °F /  -10.4 °C 2.3 °F /  -16.5 °C 30.40in /  1029.3hPa Calm     60.7% 0.00in /  0mm 0 W/m2
01:53 13.2 °F /  -10.4 °C 2.3 °F /  -16.5 °C 30.40in /  1029.3hPa Calm     61% 0.00in /  0mm 0 W/m2
02:00 13.1 °F /  -10.5 °C 2.2 °F /  -16.6 °C 30.40in /  1029.3hPa Calm     61% 0.00in /  0mm 0 W/m2
02:30 12.2 °F /  -11 °C 2.4 °F /  -16.4 °C 30.40in /  1029.3hPa Calm     64% 0.00in /  0mm 0 W/m2
03:00 11.6 °F /  -11.3 °C 2.5 °F /  -16.4 °C 30.40in /  1029.3hPa Calm     66% 0.00in /  0mm 0 W/m2
03:30 11.3 °F /  -11.5 °C 2.2 °F /  -16.6 °C 30.41in /  1029.7hPa Calm     66% 0.00in /  0mm 0 W/m2
04:04 11 °F /  -11.7 °C 2.5 °F /  -16.4 °C 30.42in /  1030hPa Calm     67.8% 0.00in /  0mm 0 W/m2
04:09 11 °F /  -11.7 °C 2.5 °F /  -16.4 °C 30.42in /  1030hPa Calm     68% 0.00in /  0mm 0 W/m2
04:14 10.9 °F /  -11.7 °C 2.4 °F /  -16.4 °C 30.42in /  1030hPa Calm     68% 0.00in /  0mm 0 W/m2
04:19 10.8 °F /  -11.8 °C 2.7 °F /  -16.3 °C 30.42in /  1030hPa Calm     69% 0.00in /  0mm 0 W/m2
04:24 10.7 °F /  -11.8 °C 2.6 °F /  -16.3 °C 30.43in /  1030.4hPa Calm     69% 0.00in /  0mm 0 W/m2
04:29 10.7 °F /  -11.8 °C 2.5 °F /  -16.4 °C 30.43in /  1030.4hPa Calm     69% 0.00in /  0mm 0 W/m2
04:34 10.6 °F /  -11.9 °C 2.5 °F /  -16.4 °C 30.44in /  1030.7hPa Calm     69% 0.00in /  0mm 0 W/m2
04:39 10.5 °F /  -11.9 °C 2.4 °F /  -16.4 °C 30.44in /  1030.7hPa Calm     69% 0.00in /  0mm 0 W/m2
04:44 10.5 °F /  -11.9 °C 2.4 °F /  -16.4 °C 30.45in /  1031hPa Calm     69% 0.00in /  0mm 0 W/m2
04:49 10.4 °F /  -12 °C 2.4 °F /  -16.4 °C 30.45in /  1031hPa Calm     69.3% 0.00in /  0mm 0 W/m2
04:54 10.4 °F /  -12 °C 2.5 °F /  -16.4 °C 30.45in /  1031hPa Calm     70% 0.00in /  0mm 0 W/m2
04:59 10.3 °F /  -12.1 °C 2.5 °F /  -16.4 °C 30.46in /  1031.4hPa Calm     70% 0.00in /  0mm 0 W/m2
05:04 10.3 °F /  -12.1 °C 2.5 °F /  -16.4 °C 30.46in /  1031.4hPa Calm     70% 0.00in /  0mm 0 W/m2
05:09 10.3 °F /  -12.1 °C 2.5 °F /  -16.4 °C 30.46in /  1031.4hPa Calm     70% 0.00in /  0mm 0 W/m2
05:14 10.3 °F /  -12.1 °C 2.5 °F /  -16.4 °C 30.47in /  1031.7hPa Calm     70% 0.00in /  0mm 0 W/m2
05:19 10.3 °F /  -12.1 °C 2.5 °F /  -16.4 °C 30.47in /  1031.7hPa Calm     70% 0.00in /  0mm 0 W/m2
05:24 10.3 °F /  -12.1 °C 2.4 °F /  -16.4 °C 30.47in /  1031.7hPa Calm     69.7% 0.00in /  0mm 0 W/m2
05:29 10.3 °F /  -12.1 °C 2.5 °F /  -16.4 °C 30.47in /  1031.7hPa Calm     69.8% 0.00in /  0mm 0 W/m2
05:34 10.3 °F /  -12.1 °C 2.3 °F /  -16.5 °C 30.47in /  1031.7hPa Calm     69.6% 0.00in /  0mm 0 W/m2
05:39 10.2 °F /  -12.1 °C 2.3 °F /  -16.5 °C 30.47in /  1031.7hPa Calm     69.6% 0.00in /  0mm 0 W/m2
05:44 10.1 °F /  -12.2 °C 2.3 °F /  -16.5 °C 30.48in /  1032.1hPa Calm     70% 0.00in /  0mm 0 W/m2
05:49 10 °F /  -12.2 °C 2.2 °F /  -16.6 °C 30.48in /  1032.1hPa Calm     70% 0.00in /  0mm 0 W/m2
05:54 10 °F /  -12.2 °C 2.4 °F /  -16.4 °C 30.48in /  1032.1hPa Calm     70.6% 0.00in /  0mm 0 W/m2
05:59 10.1 °F /  -12.2 °C 2.6 °F /  -16.3 °C 30.48in /  1032.1hPa Calm     71% 0.00in /  0mm 0 W/m2
06:04 10.2 °F /  -12.1 °C 2.7 °F /  -16.3 °C 30.49in /  1032.4hPa Calm     71% 0.00in /  0mm 0 W/m2
06:09 10.3 °F /  -12.1 °C 2.8 °F /  -16.2 °C 30.49in /  1032.4hPa Calm     71% 0.00in /  0mm 0 W/m2
06:14 10.4 °F /  -12 °C 2.9 °F /  -16.2 °C 30.49in /  1032.4hPa Calm     71% 0.00in /  0mm 0 W/m2
06:19 10.4 °F /  -12 °C 2.9 °F /  -16.2 °C 30.50in /  1032.7hPa Calm     71% 0.00in /  0mm 0 W/m2
06:24 10.5 °F /  -11.9 °C 2.9 °F /  -16.2 °C 30.50in /  1032.7hPa Calm     71% 0.00in /  0mm 0 W/m2
06:29 10.6 °F /  -11.9 °C 3.1 °F /  -16.1 °C 30.50in /  1032.7hPa Calm     71% 0.00in /  0mm 0 W/m2
06:34 10.8 °F /  -11.8 °C 3.2 °F /  -16 °C 30.51in /  1033.1hPa Calm     70.7% 0.00in /  0mm 0 W/m2
06:39 10.9 °F /  -11.7 °C 3.1 °F /  -16.1 °C 30.51in /  1033.1hPa Calm     70% 0.00in /  0mm 0 W/m2
06:44 11 °F /  -11.7 °C 3.4 °F /  -15.9 °C 30.51in /  1033.1hPa Calm     70.8% 0.00in /  0mm 0 W/m2
06:49 11 °F /  -11.7 °C 3.5 °F /  -15.8 °C 30.51in /  1033.1hPa Calm     71% 0.00in /  0mm 7 W/m2
06:54 11 °F /  -11.7 °C 3.5 °F /  -15.8 °C 30.52in /  1033.4hPa Calm     71% 0.00in /  0mm 11 W/m2
06:59 11.1 °F /  -11.6 °C 3.5 °F /  -15.8 °C 30.52in /  1033.4hPa Calm     71% 0.00in /  0mm 11 W/m2
07:04 11.3 °F /  -11.5 °C 3.6 °F /  -15.8 °C 30.52in /  1033.4hPa Calm     70.7% 0.00in /  0mm 14 W/m2
07:09 11.4 °F /  -11.4 °C 3.7 °F /  -15.7 °C 30.53in /  1033.7hPa Calm     70.3% 0.00in /  0mm 23 W/m2
07:14 11.7 °F /  -11.3 °C 4.1 °F /  -15.5 °C 30.53in /  1033.7hPa Calm     71% 0.00in /  0mm 32 W/m2
07:19 12.1 °F /  -11.1 °C 4.4 °F /  -15.3 °C 30.53in /  1033.7hPa Calm     70.6% 0.00in /  0mm 26 W/m2
07:24 12.4 °F /  -10.9 °C 4.3 °F /  -15.4 °C 30.54in /  1034.1hPa Calm     69.2% 0.00in /  0mm 37 W/m2
07:29 12.7 °F /  -10.7 °C 4.4 °F /  -15.3 °C 30.55in /  1034.4hPa Calm     69% 0.00in /  0mm 30 W/m2
07:34 12.9 °F /  -10.6 °C 4.4 °F /  -15.3 °C 30.55in /  1034.4hPa NW 0.5mph /  0.8km/h 5mph /  8km/h 68.2% 0.00in /  0mm 46 W/m2
07:39 13.2 °F /  -10.4 °C 4.6 °F /  -15.2 °C 30.55in /  1034.4hPa Calm   5mph /  8km/h 68% 0.00in /  0mm 37 W/m2
07:44 13.6 °F /  -10.2 °C 5 °F /  -15 °C 30.55in /  1034.4hPa WNW 0.5mph /  0.8km/h 5mph /  8km/h 68% 0.00in /  0mm 74 W/m2
07:49 14 °F /  -10 °C 5.4 °F /  -14.8 °C 30.55in /  1034.4hPa Calm   5mph /  8km/h 68% 0.00in /  0mm 98 W/m2
07:54 14.4 °F /  -9.8 °C 5.5 °F /  -14.7 °C 30.56in /  1034.8hPa West 0.4mph /  0.6km/h 6mph /  9.7km/h 67.2% 0.00in /  0mm 97 W/m2
07:59 14.9 °F /  -9.5 °C 5.8 °F /  -14.6 °C 30.56in /  1034.8hPa West 0.3mph /  0.5km/h 6mph /  9.7km/h 66.8% 0.00in /  0mm 130 W/m2
08:04 15.6 °F /  -9.1 °C 6.3 °F /  -14.3 °C 30.56in /  1034.8hPa Calm     66% 0.00in /  0mm 98 W/m2
08:09 15.9 °F /  -8.9 °C 6.4 °F /  -14.2 °C 30.56in /  1034.8hPa Calm     65.8% 0.00in /  0mm 81 W/m2
08:14 16.3 °F /  -8.7 °C 6.6 °F /  -14.1 °C 30.57in /  1035.1hPa Calm     65% 0.00in /  0mm 167 W/m2
08:19 16.6 °F /  -8.6 °C 6.6 °F /  -14.1 °C 30.57in /  1035.1hPa Calm     64% 0.00in /  0mm 167 W/m2
08:24 17 °F /  -8.3 °C 6.9 °F /  -13.9 °C 30.57in /  1035.1hPa Calm   1mph /  1.6km/h 64% 0.00in /  0mm 167 W/m2
08:29 17.4 °F /  -8.1 °C 7 °F /  -13.9 °C 30.57in /  1035.1hPa WNW 0.1mph /  0.2km/h 2mph /  3.2km/h 63.2% 0.00in /  0mm 211 W/m2
08:34 17.9 °F /  -7.8 °C 7.5 °F /  -13.6 °C 30.57in /  1035.1hPa NW 0.3mph /  0.5km/h 3mph /  4.8km/h 63% 0.00in /  0mm 345 W/m2
08:39 18.8 °F /  -7.3 °C 8.1 °F /  -13.3 °C 30.58in /  1035.4hPa WNW 2.2mph /  3.5km/h 9mph /  14.5km/h 62.5% 0.00in /  0mm 355 W/m2
08:44 19.8 °F /  -6.8 °C 8.3 °F /  -13.2 °C 30.58in /  1035.4hPa NW 2.3mph /  3.7km/h 11mph /  17.7km/h 60.5% 0.00in /  0mm 371 W/m2
08:49 20.7 °F /  -6.3 °C 8.8 °F /  -12.9 °C 30.58in /  1035.4hPa NW 1.2mph /  1.9km/h 11mph /  17.7km/h 59.3% 0.00in /  0mm 387 W/m2
08:54 21.6 °F /  -5.8 °C 9 °F /  -12.8 °C 30.58in /  1035.4hPa NW 2.2mph /  3.5km/h 11mph /  17.7km/h 57.6% 0.00in /  0mm 401 W/m2
08:59 22.3 °F /  -5.4 °C 9 °F /  -12.8 °C 30.59in /  1035.8hPa WNW 1.2mph /  1.9km/h 11mph /  17.7km/h 56.1% 0.00in /  0mm 415 W/m2
09:04 22.9 °F /  -5.1 °C 9.2 °F /  -12.7 °C 30.59in /  1035.8hPa NW 1mph /  1.6km/h 11mph /  17.7km/h 55% 0.00in /  0mm 429 W/m2
09:09 23.6 °F /  -4.7 °C 9.4 °F /  -12.6 °C 30.59in /  1035.8hPa NNW 2.8mph /  4.5km/h 12mph /  19.3km/h 53.8% 0.00in /  0mm 441 W/m2
09:14 24.2 °F /  -4.3 °C 9.7 °F /  -12.4 °C 30.59in /  1035.8hPa NW 1.8mph /  2.9km/h 12mph /  19.3km/h 53.5% 0.00in /  0mm 452 W/m2
09:19 24.8 °F /  -4 °C 9.3 °F /  -12.6 °C 30.59in /  1035.8hPa WNW 2.2mph /  3.5km/h 12mph /  19.3km/h 51% 0.00in /  0mm 464 W/m2
09:24 24.9 °F /  -3.9 °C 8.5 °F /  -13.1 °C 30.59in /  1035.8hPa West 5.4mph /  8.7km/h 14mph /  22.5km/h 49% 0.00in /  0mm 471 W/m2
09:29 24.7 °F /  -4.1 °C 8.3 °F /  -13.2 °C 30.59in /  1035.8hPa WNW 6.5mph /  10.5km/h 14mph /  22.5km/h 49.2% 0.00in /  0mm 483 W/m2
09:34 24.4 °F /  -4.2 °C 8 °F /  -13.3 °C 30.59in /  1035.8hPa WNW 4mph /  6.4km/h 14mph /  22.5km/h 49% 0.00in /  0mm 497 W/m2
09:39 24.4 °F /  -4.2 °C 8 °F /  -13.3 °C 30.60in /  1036.1hPa WNW 6.7mph /  10.8km/h 13mph /  20.9km/h 49% 0.00in /  0mm 508 W/m2
09:44 24.6 °F /  -4.1 °C 7.9 °F /  -13.4 °C 30.60in /  1036.1hPa West 2.3mph /  3.7km/h 13mph /  20.9km/h 48.5% 0.00in /  0mm 520 W/m2
09:49 24.9 °F /  -3.9 °C 8.4 °F /  -13.1 °C 30.60in /  1036.1hPa NW 3.5mph /  5.6km/h 13mph /  20.9km/h 49% 0.00in /  0mm 529 W/m2
09:54 25.1 °F /  -3.8 °C 8.4 °F /  -13.1 °C 30.60in /  1036.1hPa WNW 2.3mph /  3.7km/h 13mph /  20.9km/h 48.4% 0.00in /  0mm 540 W/m2
09:59 25.3 °F /  -3.7 °C 8.3 °F /  -13.2 °C 30.60in /  1036.1hPa WNW 6.1mph /  9.8km/h 13mph /  20.9km/h 47.9% 0.00in /  0mm 550 W/m2
10:04 25.4 °F /  -3.7 °C 8.3 °F /  -13.2 °C 30.60in /  1036.1hPa WNW 3.9mph /  6.3km/h 13mph /  20.9km/h 47.7% 0.00in /  0mm 561 W/m2
10:09 25.7 °F /  -3.5 °C 9 °F /  -12.8 °C 30.60in /  1036.1hPa NW 2.1mph /  3.4km/h 13mph /  20.9km/h 48.5% 0.00in /  0mm 570 W/m2
10:14 26.2 °F /  -3.2 °C 8.7 °F /  -12.9 °C 30.60in /  1036.1hPa WNW 3.8mph /  6.1km/h 13mph /  20.9km/h 47.1% 0.00in /  0mm 578 W/m2
10:19 26.3 °F /  -3.2 °C 8.4 °F /  -13.1 °C 30.60in /  1036.1hPa WNW 2.4mph /  3.9km/h 13mph /  20.9km/h 46% 0.00in /  0mm 584 W/m2
10:24 26.5 °F /  -3.1 °C 8.6 °F /  -13 °C 30.60in /  1036.1hPa NW 2.5mph /  4km/h 13mph /  20.9km/h 46.1% 0.00in /  0mm 594 W/m2
10:29 26.8 °F /  -2.9 °C 9.2 °F /  -12.7 °C 30.60in /  1036.1hPa NW 4.5mph /  7.2km/h 13mph /  20.9km/h 46.8% 0.00in /  0mm 601 W/m2
10:34 27 °F /  -2.8 °C 8.9 °F /  -12.8 °C 30.60in /  1036.1hPa NNW 3.2mph /  5.1km/h 14mph /  22.5km/h 45.8% 0.00in /  0mm 606 W/m2
10:39 27.1 °F /  -2.7 °C 8.4 °F /  -13.1 °C 30.60in /  1036.1hPa NW 4.7mph /  7.6km/h 14mph /  22.5km/h 44.7% 0.00in /  0mm 612 W/m2
10:44 27.1 °F /  -2.7 °C 7.8 °F /  -13.4 °C 30.60in /  1036.1hPa WNW 6.1mph /  9.8km/h 14mph /  22.5km/h 43.4% 0.00in /  0mm 617 W/m2
10:49 27 °F /  -2.8 °C 7.1 °F /  -13.8 °C 30.60in /  1036.1hPa WNW 8.1mph /  13km/h 15mph /  24.1km/h 42.2% 0.00in /  0mm 552 W/m2
10:54 26.8 °F /  -2.9 °C 7.4 °F /  -13.7 °C 30.60in /  1036.1hPa WNW 5.6mph /  9km/h 15mph /  24.1km/h 43.1% 0.00in /  0mm 236 W/m2
10:59 27 °F /  -2.8 °C 7.3 °F /  -13.7 °C 30.60in /  1036.1hPa WNW 7.9mph /  12.7km/h 15mph /  24.1km/h 42.6% 0.00in /  0mm 573 W/m2
11:04 27 °F /  -2.8 °C 7.2 °F /  -13.8 °C 30.60in /  1036.1hPa NW 4mph /  6.4km/h 15mph /  24.1km/h 42.4% 0.00in /  0mm 589 W/m2
11:09 27.3 °F /  -2.6 °C 8.1 °F /  -13.3 °C 30.60in /  1036.1hPa NW 2.9mph /  4.7km/h 12mph /  19.3km/h 43.7% 0.00in /  0mm 436 W/m2
11:14 28 °F /  -2.2 °C 8.5 °F /  -13.1 °C 30.60in /  1036.1hPa NW 3.7mph /  6km/h 12mph /  19.3km/h 43.2% 0.00in /  0mm 610 W/m2
11:19 28.4 °F /  -2 °C 8.6 °F /  -13 °C 30.60in /  1036.1hPa NW 2.6mph /  4.2km/h 12mph /  19.3km/h 42.6% 0.00in /  0mm 636 W/m2
11:24 28.5 °F /  -1.9 °C 7.8 °F /  -13.4 °C 30.60in /  1036.1hPa NW 5.5mph /  8.9km/h 14mph /  22.5km/h 40.9% 0.00in /  0mm 563 W/m2
11:29 28.3 °F /  -2.1 °C 7.2 °F /  -13.8 °C 30.60in /  1036.1hPa WNW 2.8mph /  4.5km/h 14mph /  22.5km/h 40.2% 0.00in /  0mm 197 W/m2
11:34 28.3 °F /  -2.1 °C 7.8 °F /  -13.4 °C 30.59in /  1035.8hPa WNW 1.3mph /  2.1km/h 14mph /  22.5km/h 41.3% 0.00in /  0mm 673 W/m2
11:39 28.3 °F /  -2.1 °C 7.3 °F /  -13.7 °C 30.59in /  1035.8hPa WNW 2.2mph /  3.5km/h 9mph /  14.5km/h 40.3% 0.00in /  0mm 680 W/m2
11:44 28.4 °F /  -2 °C 7.4 °F /  -13.7 °C 30.59in /  1035.8hPa West 1mph /  1.6km/h 9mph /  14.5km/h 40.5% 0.00in /  0mm 680 W/m2
11:49 28.6 °F /  -1.9 °C 7.6 °F /  -13.6 °C 30.59in /  1035.8hPa West 2.3mph /  3.7km/h 9mph /  14.5km/h 40.5% 0.00in /  0mm 582 W/m2
11:54 28.6 °F /  -1.9 °C 7.4 °F /  -13.7 °C 30.59in /  1035.8hPa WNW 2.9mph /  4.7km/h 9mph /  14.5km/h 40.1% 0.00in /  0mm 183 W/m2
11:59 28.5 °F /  -1.9 °C 8 °F /  -13.3 °C 30.59in /  1035.8hPa WSW 0.9mph /  1.4km/h 9mph /  14.5km/h 41.4% 0.00in /  0mm 162 W/m2
12:00 28.5 °F /  -1.9 °C 8.9 °F /  -12.8 °C 30.58in /  1035.4hPa WSW 1mph /  1.6km/h 9mph /  14.5km/h 43% 0.00in /  0mm 162 W/m2
12:09 28.3 °F /  -2.1 °C 7.2 °F /  -13.8 °C 30.59in /  1035.8hPa West 1.9mph /  3.1km/h 6mph /  9.7km/h 40.2% 0.00in /  0mm 564 W/m2
12:14 28.3 °F /  -2.1 °C 7.5 °F /  -13.6 °C 30.58in /  1035.4hPa West 0.8mph /  1.3km/h 6mph /  9.7km/h 40.7% 0.00in /  0mm 434 W/m2
12:19 28.4 °F /  -2 °C 8 °F /  -13.3 °C 30.58in /  1035.4hPa West 0.7mph /  1.1km/h 6mph /  9.7km/h 41.5% 0.00in /  0mm 434 W/m2
12:24 28.6 °F /  -1.9 °C 8.7 °F /  -12.9 °C 30.58in /  1035.4hPa WSW 1.7mph /  2.7km/h 7mph /  11.3km/h 42.4% 0.00in /  0mm 299 W/m2
12:29 29 °F /  -1.7 °C 8.7 °F /  -12.9 °C 30.58in /  1035.4hPa WSW 2.4mph /  3.9km/h 9mph /  14.5km/h 41.9% 0.00in /  0mm 570 W/m2
12:34 29.2 °F /  -1.6 °C 7.9 °F /  -13.4 °C 30.58in /  1035.4hPa SW 3.9mph /  6.3km/h 10mph /  16.1km/h 40% 0.00in /  0mm 570 W/m2
12:39 29 °F /  -1.7 °C 6.7 °F /  -14.1 °C 30.58in /  1035.4hPa WSW 1mph /  1.6km/h 10mph /  16.1km/h 38.2% 0.00in /  0mm 592 W/m2
12:44 28.8 °F /  -1.8 °C 7 °F /  -13.9 °C 30.58in /  1035.4hPa WSW 0.7mph /  1.1km/h 10mph /  16.1km/h 39% 0.00in /  0mm 592 W/m2
12:49 28.7 °F /  -1.8 °C 7.6 °F /  -13.6 °C 30.57in /  1035.1hPa WSW 1.9mph /  3.1km/h 10mph /  16.1km/h 40.2% 0.00in /  0mm 144 W/m2
12:54 28.8 °F /  -1.8 °C 7.5 °F /  -13.6 °C 30.57in /  1035.1hPa West 2.1mph /  3.4km/h 12mph /  19.3km/h 40% 0.00in /  0mm 179 W/m2
12:59 28.9 °F /  -1.7 °C 7.6 °F /  -13.6 °C 30.57in /  1035.1hPa West 4mph /  6.4km/h 12mph /  19.3km/h 39.9% 0.00in /  0mm 243 W/m2
13:04 28.9 °F /  -1.7 °C 7.7 °F /  -13.5 °C 30.57in /  1035.1hPa West 0.7mph /  1.1km/h 12mph /  19.3km/h 40% 0.00in /  0mm 176 W/m2
13:09 28.9 °F /  -1.7 °C 7.6 °F /  -13.6 °C 30.57in /  1035.1hPa WNW 1mph /  1.6km/h 6mph /  9.7km/h 39.9% 0.00in /  0mm 487 W/m2
13:14 29 °F /  -1.7 °C 7.8 °F /  -13.4 °C 30.57in /  1035.1hPa WNW 0.5mph /  0.8km/h 6mph /  9.7km/h 40.3% 0.00in /  0mm 360 W/m2
13:19 29.3 °F /  -1.5 °C 9.4 °F /  -12.6 °C 30.57in /  1035.1hPa WNW 1.1mph /  1.8km/h 6mph /  9.7km/h 42.7% 0.00in /  0mm 366 W/m2
13:24 29.6 °F /  -1.3 °C 9.1 °F /  -12.7 °C 30.57in /  1035.1hPa West 2.2mph /  3.5km/h 10mph /  16.1km/h 41.5% 0.00in /  0mm 366 W/m2
13:29 29.8 °F /  -1.2 °C 8.3 °F /  -13.2 °C 30.57in /  1035.1hPa WSW 1.3mph /  2.1km/h 10mph /  16.1km/h 39.7% 0.00in /  0mm 132 W/m2
13:34 30 °F /  -1.1 °C 8.6 °F /  -13 °C 30.57in /  1035.1hPa West 0.8mph /  1.3km/h 10mph /  16.1km/h 40% 0.00in /  0mm 376 W/m2
13:39 30.2 °F /  -1 °C 9.1 °F /  -12.7 °C 30.57in /  1035.1hPa WNW 0.6mph /  1km/h 5mph /  8km/h 40.6% 0.00in /  0mm 376 W/m2
13:44 30.3 °F /  -0.9 °C 8 °F /  -13.3 °C 30.57in /  1035.1hPa West 0.2mph /  0.3km/h 5mph /  8km/h 38.5% 0.00in /  0mm 388 W/m2
13:49 30.1 °F /  -1.1 °C 7.1 °F /  -13.8 °C 30.57in /  1035.1hPa West 1mph /  1.6km/h 7mph /  11.3km/h 37.3% 0.00in /  0mm 411 W/m2
13:54 30.1 °F /  -1.1 °C 8 °F /  -13.3 °C 30.57in /  1035.1hPa WNW 5.5mph /  8.9km/h 14mph /  22.5km/h 38.6% 0.00in /  0mm 338 W/m2
13:59 30.2 °F /  -1 °C 7.3 °F /  -13.7 °C 30.57in /  1035.1hPa WSW 2.1mph /  3.4km/h 14mph /  22.5km/h 37.3% 0.00in /  0mm 274 W/m2
14:04 30.2 °F /  -1 °C 7.6 °F /  -13.6 °C 30.57in /  1035.1hPa WNW 2.5mph /  4km/h 14mph /  22.5km/h 38% 0.00in /  0mm 262 W/m2
14:09 30.3 °F /  -0.9 °C 8.4 °F /  -13.1 °C 30.57in /  1035.1hPa WSW 2.2mph /  3.5km/h 10mph /  16.1km/h 39% 0.00in /  0mm 352 W/m2
14:14 30.4 °F /  -0.9 °C 7.9 °F /  -13.4 °C 30.57in /  1035.1hPa WNW 1.2mph /  1.9km/h 10mph /  16.1km/h 38.1% 0.00in /  0mm 353 W/m2
14:19 30.5 °F /  -0.8 °C 8 °F /  -13.3 °C 30.57in /  1035.1hPa West 3mph /  4.8km/h 14mph /  22.5km/h 38.1% 0.00in /  0mm 229 W/m2
14:24 30.5 °F /  -0.8 °C 8.4 °F /  -13.1 °C 30.57in /  1035.1hPa WSW 0.5mph /  0.8km/h 14mph /  22.5km/h 38.7% 0.00in /  0mm 313 W/m2
14:29 30.5 °F /  -0.8 °C 9 °F /  -12.8 °C 30.57in /  1035.1hPa WSW 2mph /  3.2km/h 14mph /  22.5km/h 39.8% 0.00in /  0mm 313 W/m2
14:34 30.5 °F /  -0.8 °C 8.9 °F /  -12.8 °C 30.58in /  1035.4hPa WSW 0.9mph /  1.4km/h 14mph /  22.5km/h 39.8% 0.00in /  0mm 271 W/m2
14:39 30.4 °F /  -0.9 °C 8.9 °F /  -12.8 °C 30.58in /  1035.4hPa WSW 1.7mph /  2.7km/h 9mph /  14.5km/h 39.8% 0.00in /  0mm 204 W/m2
14:44 30.6 °F /  -0.8 °C 8.7 °F /  -12.9 °C 30.58in /  1035.4hPa West 0.6mph /  1km/h 9mph /  14.5km/h 39.2% 0.00in /  0mm 327 W/m2
14:49 30.9 °F /  -0.6 °C 9.3 °F /  -12.6 °C 30.58in /  1035.4hPa SW 1.1mph /  1.8km/h 9mph /  14.5km/h 39.9% 0.00in /  0mm 478 W/m2
14:54 31.2 °F /  -0.4 °C 9.2 °F /  -12.7 °C 30.58in /  1035.4hPa SW 1.8mph /  2.9km/h 9mph /  14.5km/h 39.1% 0.00in /  0mm 478 W/m2
14:59 31.5 °F /  -0.3 °C 9.3 °F /  -12.6 °C 30.58in /  1035.4hPa SW 0.5mph /  0.8km/h 9mph /  14.5km/h 38.9% 0.00in /  0mm 485 W/m2
15:04 31.4 °F /  -0.3 °C 9.1 °F /  -12.7 °C 30.58in /  1035.4hPa SW 0.9mph /  1.4km/h 9mph /  14.5km/h 38.5% 0.00in /  0mm 438 W/m2
15:09 31.2 °F /  -0.4 °C 9.1 °F /  -12.7 °C 30.58in /  1035.4hPa SW 1.2mph /  1.9km/h 7mph /  11.3km/h 39% 0.00in /  0mm 60 W/m2
15:14 30.9 °F /  -0.6 °C 8.8 °F /  -12.9 °C 30.58in /  1035.4hPa WSW 0.4mph /  0.6km/h 7mph /  11.3km/h 38.9% 0.00in /  0mm 76 W/m2
15:19 30.8 °F /  -0.7 °C 8.7 °F /  -12.9 °C 30.58in /  1035.4hPa West 0.7mph /  1.1km/h 7mph /  11.3km/h 38.9% 0.00in /  0mm 56 W/m2
15:24 30.6 °F /  -0.8 °C 8.6 °F /  -13 °C 30.58in /  1035.4hPa WSW 1.1mph /  1.8km/h 7mph /  11.3km/h 39% 0.00in /  0mm 58 W/m2
15:29 30.5 °F /  -0.8 °C 9.1 °F /  -12.7 °C 30.58in /  1035.4hPa WSW 0.6mph /  1km/h 7mph /  11.3km/h 40% 0.00in /  0mm 63 W/m2
15:34 30.4 °F /  -0.9 °C 9.1 °F /  -12.7 °C 30.58in /  1035.4hPa SW 0.1mph /  0.2km/h 7mph /  11.3km/h 40.3% 0.00in /  0mm 47 W/m2
15:39 30.2 °F /  -1 °C 8.5 °F /  -13.1 °C 30.58in /  1035.4hPa West 2.9mph /  4.7km/h 10mph /  16.1km/h 39.4% 0.00in /  0mm 37 W/m2
15:44 30.2 °F /  -1 °C 8.3 °F /  -13.2 °C 30.58in /  1035.4hPa WNW 1.7mph /  2.7km/h 10mph /  16.1km/h 39% 0.00in /  0mm 35 W/m2
15:49 30.3 °F /  -0.9 °C 8.3 °F /  -13.2 °C 30.59in /  1035.8hPa WNW 2.8mph /  4.5km/h 11mph /  17.7km/h 39% 0.00in /  0mm 37 W/m2
15:54 30.3 °F /  -0.9 °C 8.2 °F /  -13.2 °C 30.59in /  1035.8hPa WNW 2.3mph /  3.7km/h 11mph /  17.7km/h 38.8% 0.00in /  0mm 35 W/m2
15:59 30.3 °F /  -0.9 °C 8.7 °F /  -12.9 °C 30.59in /  1035.8hPa Calm   11mph /  17.7km/h 39.8% 0.00in /  0mm 32 W/m2
16:00 30.3 °F /  -0.9 °C 8.9 °F /  -12.8 °C 30.58in /  1035.4hPa Calm   11mph /  17.7km/h 40% 0.00in /  0mm 30 W/m2
16:09 30.1 °F /  -1.1 °C 8.7 °F /  -12.9 °C 30.59in /  1035.8hPa West 3.1mph /  5km/h 13mph /  20.9km/h 40% 0.00in /  0mm 33 W/m2
16:14 30.2 °F /  -1 °C 8.7 °F /  -12.9 °C 30.59in /  1035.8hPa WSW 1mph /  1.6km/h 13mph /  20.9km/h 39.9% 0.00in /  0mm 28 W/m2
16:19 30.1 °F /  -1.1 °C 8.8 °F /  -12.9 °C 30.59in /  1035.8hPa WSW 0.7mph /  1.1km/h 13mph /  20.9km/h 40.2% 0.00in /  0mm 26 W/m2
16:24 30 °F /  -1.1 °C 8.6 °F /  -13 °C 30.59in /  1035.8hPa WSW 0.2mph /  0.3km/h 13mph /  20.9km/h 40% 0.00in /  0mm 25 W/m2
16:29 29.9 °F /  -1.2 °C 8.8 °F /  -12.9 °C 30.59in /  1035.8hPa WSW 0.8mph /  1.3km/h 13mph /  20.9km/h 40.5% 0.00in /  0mm 25 W/m2
16:34 29.7 °F /  -1.3 °C 8.9 °F /  -12.8 °C 30.60in /  1036.1hPa WSW 0.5mph /  0.8km/h 13mph /  20.9km/h 40.9% 0.00in /  0mm 23 W/m2
16:39 29.6 °F /  -1.3 °C 8.8 °F /  -12.9 °C 30.59in /  1035.8hPa West 0.1mph /  0.2km/h 5mph /  8km/h 41% 0.00in /  0mm 21 W/m2
16:44 29.6 °F /  -1.3 °C 8.8 °F /  -12.9 °C 30.59in /  1035.8hPa WSW 0.2mph /  0.3km/h 5mph /  8km/h 41% 0.00in /  0mm 19 W/m2
16:49 29.4 °F /  -1.4 °C 8.7 °F /  -12.9 °C 30.60in /  1036.1hPa WSW 0.6mph /  1km/h 5mph /  8km/h 41.2% 0.00in /  0mm 18 W/m2
16:54 29.3 °F /  -1.5 °C 9.1 °F /  -12.7 °C 30.60in /  1036.1hPa WSW 0.2mph /  0.3km/h 5mph /  8km/h 42% 0.00in /  0mm 16 W/m2
16:59 29.2 °F /  -1.6 °C 9.2 °F /  -12.7 °C 30.60in /  1036.1hPa WSW 0.1mph /  0.2km/h 5mph /  8km/h 42.5% 0.00in /  0mm 14 W/m2
17:04 29 °F /  -1.7 °C 8.8 °F /  -12.9 °C 30.60in /  1036.1hPa SW 0.9mph /  1.4km/h 9mph /  14.5km/h 42% 0.00in /  0mm 12 W/m2
17:09 28.9 °F /  -1.7 °C 8.7 °F /  -12.9 °C 30.60in /  1036.1hPa Calm   9mph /  14.5km/h 42% 0.00in /  0mm 11 W/m2
17:14 28.8 °F /  -1.8 °C 9.2 °F /  -12.7 °C 30.60in /  1036.1hPa Calm   9mph /  14.5km/h 43% 0.00in /  0mm 9 W/m2
17:19 28.7 °F /  -1.8 °C 9 °F /  -12.8 °C 30.60in /  1036.1hPa SW 0.1mph /  0.2km/h 9mph /  14.5km/h 43% 0.00in /  0mm 5 W/m2
17:24 28.5 °F /  -1.9 °C 8.9 °F /  -12.8 °C 30.60in /  1036.1hPa Calm   9mph /  14.5km/h 43% 0.00in /  0mm 0 W/m2
17:29 28.4 °F /  -2 °C 9.3 °F /  -12.6 °C 30.61in /  1036.5hPa Calm   9mph /  14.5km/h 44% 0.00in /  0mm 0 W/m2
17:34 28.2 °F /  -2.1 °C 9.1 °F /  -12.7 °C 30.61in /  1036.5hPa SW 0.1mph /  0.2km/h 9mph /  14.5km/h 44% 0.00in /  0mm 0 W/m2
17:39 28.1 °F /  -2.2 °C 9 °F /  -12.8 °C 30.61in /  1036.5hPa Calm   1mph /  1.6km/h 44% 0.00in /  0mm 0 W/m2
17:44 27.9 °F /  -2.3 °C 9 °F /  -12.8 °C 30.62in /  1036.8hPa Calm   1mph /  1.6km/h 44.4% 0.00in /  0mm 0 W/m2
17:49 27.7 °F /  -2.4 °C 9.2 °F /  -12.7 °C 30.62in /  1036.8hPa Calm   1mph /  1.6km/h 45% 0.00in /  0mm 0 W/m2
17:54 27.6 °F /  -2.4 °C 9.4 °F /  -12.6 °C 30.62in /  1036.8hPa Calm   1mph /  1.6km/h 45.7% 0.00in /  0mm 0 W/m2
17:59 27.4 °F /  -2.6 °C 9.4 °F /  -12.6 °C 30.62in /  1036.8hPa Calm   1mph /  1.6km/h 46% 0.00in /  0mm 0 W/m2
18:04 27.2 °F /  -2.7 °C 9.2 °F /  -12.7 °C 30.62in /  1036.8hPa Calm   1mph /  1.6km/h 46% 0.00in /  0mm 0 W/m2
18:09 27.1 °F /  -2.7 °C 9.1 °F /  -12.7 °C 30.62in /  1036.8hPa Calm     46% 0.00in /  0mm 0 W/m2
18:14 27 °F /  -2.8 °C 9.1 °F /  -12.7 °C 30.63in /  1037.1hPa Calm     46.2% 0.00in /  0mm 0 W/m2
18:19 26.8 °F /  -2.9 °C 9.1 °F /  -12.7 °C 30.63in /  1037.1hPa Calm   1mph /  1.6km/h 46.7% 0.00in /  0mm 0 W/m2
18:24 26.6 °F /  -3 °C 9.1 °F /  -12.7 °C 30.63in /  1037.1hPa Calm   1mph /  1.6km/h 47% 0.00in /  0mm 0 W/m2
18:29 26.5 °F /  -3.1 °C 9 °F /  -12.8 °C 30.63in /  1037.1hPa Calm   1mph /  1.6km/h 47% 0.00in /  0mm 0 W/m2
18:34 26.3 °F /  -3.2 °C 9.1 °F /  -12.7 °C 30.63in /  1037.1hPa Calm   1mph /  1.6km/h 47.5% 0.00in /  0mm 0 W/m2
18:39 26.2 °F /  -3.2 °C 9.2 °F /  -12.7 °C 30.64in /  1037.5hPa Calm     48% 0.00in /  0mm 0 W/m2
18:44 26.1 °F /  -3.3 °C 9.3 °F /  -12.6 °C 30.65in /  1037.8hPa Calm     48.4% 0.00in /  0mm 0 W/m2
18:49 26.1 °F /  -3.3 °C 9.6 °F /  -12.4 °C 30.65in /  1037.8hPa Calm     49% 0.00in /  0mm 0 W/m2
18:54 26.1 °F /  -3.3 °C 9.6 °F /  -12.4 °C 30.65in /  1037.8hPa Calm     49% 0.00in /  0mm 0 W/m2
18:59 26.1 °F /  -3.3 °C 9.5 °F /  -12.5 °C 30.65in /  1037.8hPa Calm     49% 0.00in /  0mm 0 W/m2
19:04 26 °F /  -3.3 °C 9.4 °F /  -12.6 °C 30.65in /  1037.8hPa Calm     49% 0.00in /  0mm 0 W/m2
19:09 25.8 °F /  -3.4 °C 9.5 °F /  -12.5 °C 30.65in /  1037.8hPa Calm     49.5% 0.00in /  0mm 0 W/m2
19:14 25.6 °F /  -3.6 °C 10 °F /  -12.2 °C 30.66in /  1038.1hPa Calm     51% 0.00in /  0mm 0 W/m2
19:19 25.4 °F /  -3.7 °C 9.8 °F /  -12.3 °C 30.66in /  1038.1hPa Calm     51% 0.00in /  0mm 0 W/m2
19:24 25.3 °F /  -3.7 °C 10.1 °F /  -12.2 °C 30.66in /  1038.1hPa Calm     51.8% 0.00in /  0mm 0 W/m2
19:29 25.2 °F /  -3.8 °C 10.1 °F /  -12.2 °C 30.66in /  1038.1hPa Calm     52% 0.00in /  0mm 0 W/m2
19:34 25.2 °F /  -3.8 °C 9.8 °F /  -12.3 °C 30.66in /  1038.1hPa Calm     51.5% 0.00in /  0mm 0 W/m2
19:39 25.1 °F /  -3.8 °C 9.6 °F /  -12.4 °C 30.67in /  1038.5hPa Calm     51% 0.00in /  0mm 0 W/m2
19:44 25.1 °F /  -3.8 °C 9.5 °F /  -12.5 °C 30.67in /  1038.5hPa Calm     51% 0.00in /  0mm 0 W/m2
19:49 24.9 °F /  -3.9 °C 9.4 °F /  -12.6 °C 30.67in /  1038.5hPa Calm     51% 0.00in /  0mm 0 W/m2
19:54 24.8 °F /  -4 °C 9.2 °F /  -12.7 °C 30.67in /  1038.5hPa Calm     51% 0.00in /  0mm 0 W/m2
19:59 24.7 °F /  -4.1 °C 9.1 °F /  -12.7 °C 30.68in /  1038.8hPa Calm     51% 0.00in /  0mm 0 W/m2
20:00 24.6 °F /  -4.1 °C 9.1 °F /  -12.7 °C 30.68in /  1038.8hPa Calm     51% 0.00in /  0mm 0 W/m2
20:09 24.5 °F /  -4.2 °C 9.4 °F /  -12.6 °C 30.68in /  1038.8hPa Calm     52% 0.00in /  0mm 0 W/m2
20:14 24.4 °F /  -4.2 °C 9.6 °F /  -12.4 °C 30.68in /  1038.8hPa Calm     52.7% 0.00in /  0mm 0 W/m2
20:19 24.3 °F /  -4.3 °C 9.7 °F /  -12.4 °C 30.68in /  1038.8hPa Calm     53% 0.00in /  0mm 0 W/m2
20:24 24.2 °F /  -4.3 °C 9.6 °F /  -12.4 °C 30.68in /  1038.8hPa Calm     53% 0.00in /  0mm 0 W/m2
20:29 24.1 °F /  -4.4 °C 9.6 °F /  -12.4 °C 30.68in /  1038.8hPa Calm     53.5% 0.00in /  0mm 0 W/m2
20:34 24 °F /  -4.4 °C 9.7 °F /  -12.4 °C 30.68in /  1038.8hPa Calm     54% 0.00in /  0mm 0 W/m2
20:39 23.8 °F /  -4.6 °C 9.6 °F /  -12.4 °C 30.68in /  1038.8hPa Calm     54% 0.00in /  0mm 0 W/m2
20:44 23.7 °F /  -4.6 °C 9.5 °F /  -12.5 °C 30.68in /  1038.8hPa Calm     54% 0.00in /  0mm 0 W/m2
20:49 23.5 °F /  -4.7 °C 9.3 °F /  -12.6 °C 30.69in /  1039.2hPa Calm     54% 0.00in /  0mm 0 W/m2
20:54 23.4 °F /  -4.8 °C 9.6 °F /  -12.4 °C 30.69in /  1039.2hPa Calm     55% 0.00in /  0mm 0 W/m2
20:59 23.2 °F /  -4.9 °C 9.4 °F /  -12.6 °C 30.70in /  1039.5hPa Calm     55% 0.00in /  0mm 0 W/m2
21:04 23 °F /  -5 °C 9.3 °F /  -12.6 °C 30.70in /  1039.5hPa Calm     55% 0.00in /  0mm 0 W/m2
21:09 22.9 °F /  -5.1 °C 9.4 °F /  -12.6 °C 30.69in /  1039.2hPa Calm     55.7% 0.00in /  0mm 0 W/m2
21:14 22.7 °F /  -5.2 °C 9.4 °F /  -12.6 °C 30.69in /  1039.2hPa Calm     56% 0.00in /  0mm 0 W/m2
21:19 22.6 °F /  -5.2 °C 9.3 °F /  -12.6 °C 30.69in /  1039.2hPa Calm     56% 0.00in /  0mm 0 W/m2
21:24 22.5 °F /  -5.3 °C 9.2 °F /  -12.7 °C 30.69in /  1039.2hPa Calm     56% 0.00in /  0mm 0 W/m2
21:29 22.4 °F /  -5.3 °C 9.5 °F /  -12.5 °C 30.69in /  1039.2hPa Calm     56.8% 0.00in /  0mm 0 W/m2
21:34 22.4 °F /  -5.3 °C 9.5 °F /  -12.5 °C 30.69in /  1039.2hPa Calm     57% 0.00in /  0mm 0 W/m2
21:39 22.3 °F /  -5.4 °C 9.4 °F /  -12.6 °C 30.69in /  1039.2hPa Calm     57% 0.00in /  0mm 0 W/m2
21:44 22.2 °F /  -5.4 °C 9.4 °F /  -12.6 °C 30.69in /  1039.2hPa Calm     57.1% 0.00in /  0mm 0 W/m2
21:49 22.3 °F /  -5.4 °C 9.8 °F /  -12.3 °C 30.69in /  1039.2hPa Calm     58% 0.00in /  0mm 0 W/m2
21:54 22.3 °F /  -5.4 °C 9.8 °F /  -12.3 °C 30.69in /  1039.2hPa Calm     58% 0.00in /  0mm 0 W/m2
21:59 22.3 °F /  -5.4 °C 9.8 °F /  -12.3 °C 30.69in /  1039.2hPa Calm     58% 0.00in /  0mm 0 W/m2
22:04 22.2 °F /  -5.4 °C 9.7 °F /  -12.4 °C 30.70in /  1039.5hPa Calm     58% 0.00in /  0mm 0 W/m2
22:09 22.1 °F /  -5.5 °C 9.9 °F /  -12.3 °C 30.70in /  1039.5hPa Calm     58.8% 0.00in /  0mm 0 W/m2
22:14 22.1 °F /  -5.5 °C 10.3 °F /  -12.1 °C 30.70in /  1039.5hPa Calm     59.9% 0.00in /  0mm 0 W/m2
22:19 22 °F /  -5.6 °C 10.8 °F /  -11.8 °C 30.71in /  1039.8hPa Calm     61.7% 0.00in /  0mm 0 W/m2
22:24 21.7 °F /  -5.7 °C 11.1 °F /  -11.6 °C 30.71in /  1039.8hPa Calm     63% 0.00in /  0mm 0 W/m2
22:29 21.5 °F /  -5.8 °C 10.7 °F /  -11.8 °C 30.71in /  1039.8hPa Calm     62.5% 0.00in /  0mm 0 W/m2
22:34 21.3 °F /  -5.9 °C 10.5 °F /  -11.9 °C 30.71in /  1039.8hPa Calm     62.6% 0.00in /  0mm 0 W/m2
22:39 21 °F /  -6.1 °C 10.4 °F /  -12 °C 30.71in /  1039.8hPa Calm     63% 0.00in /  0mm 0 W/m2
22:44 20.8 °F /  -6.2 °C 10.3 °F /  -12.1 °C 30.71in /  1039.8hPa Calm     63% 0.00in /  0mm 0 W/m2
22:49 20.7 °F /  -6.3 °C 10.1 °F /  -12.2 °C 30.71in /  1039.8hPa Calm     63% 0.00in /  0mm 0 W/m2
22:54 20.5 °F /  -6.4 °C 9.9 °F /  -12.3 °C 30.71in /  1039.8hPa Calm     63% 0.00in /  0mm 0 W/m2
22:59 20.4 °F /  -6.4 °C 9.8 °F /  -12.3 °C 30.71in /  1039.8hPa Calm     63% 0.00in /  0mm 0 W/m2
23:00 20.4 °F /  -6.4 °C 10.2 °F /  -12.1 °C 30.71in /  1039.8hPa Calm     64% 0.00in /  0mm 0 W/m2
23:09 20.4 °F /  -6.4 °C 10.2 °F /  -12.1 °C 30.71in /  1039.8hPa Calm     64% 0.00in /  0mm 0 W/m2
23:14 20.4 °F /  -6.4 °C 10.2 °F /  -12.1 °C 30.71in /  1039.8hPa Calm     64% 0.00in /  0mm 0 W/m2
23:19 20.3 °F /  -6.5 °C 10.1 °F /  -12.2 °C 30.71in /  1039.8hPa Calm     64% 0.00in /  0mm 0 W/m2
23:24 20.2 °F /  -6.6 °C 10.2 °F /  -12.1 °C 30.71in /  1039.8hPa Calm     64.6% 0.00in /  0mm 0 W/m2
23:29 20.1 °F /  -6.6 °C 10.3 °F /  -12.1 °C 30.71in /  1039.8hPa Calm     65.2% 0.00in /  0mm 0 W/m2
23:34 20 °F /  -6.7 °C 10.5 °F /  -11.9 °C 30.71in /  1039.8hPa Calm     66.2% 0.00in /  0mm 0 W/m2
23:39 19.8 °F /  -6.8 °C 10.7 °F /  -11.8 °C 30.71in /  1039.8hPa Calm     67.2% 0.00in /  0mm 0 W/m2
23:44 19.7 °F /  -6.8 °C 10.8 °F /  -11.8 °C 30.71in /  1039.8hPa Calm     67.8% 0.00in /  0mm 0 W/m2
23:49 19.5 °F /  -6.9 °C 10.9 °F /  -11.7 °C 30.70in /  1039.5hPa Calm     68.8% 0.00in /  0mm 0 W/m2
23:54 19.3 °F /  -7.1 °C 10.8 °F /  -11.8 °C 30.70in /  1039.5hPa Calm     69% 0.00in /  0mm 0 W/m2
23:59 19.2 °F /  -7.1 °C 10.4 °F /  -12 °C 30.70in /  1039.5hPa Calm     68.1% 0.00in /  0mm 0 W/m2
Hartford County Weather
Compliments of Weather Underground - 4 mb